Griswold, Iowa
Current Conditions -  °F | °C
As of 2:15 AM on Friday 31 Oct 2014 (Local Time) from KAIO Reporting Station
Overcast Overcast  
Wind Chill: 23°   Ceiling: 2900
Heat Index: 36°   Visibility: 10mi
Dew Point: 25°   Wind: 25mph
Humidity: 65%   Direction: 10°N
Pressure: 30.39"   Gusts: 38mph
Location:  41.23°N, 95.14°W
Report Text: KAIO 310715Z AUTO 01022G33KT 10SM OVC029 02/M04 A3039 RMK AO2
Loading
Personal Weather Stations






























Interactive Weather Map
Tropical Storm Tracking
New forecast layout! Learn more

10-Day Weather Forecast

Advertisements
Track Severe Weather on mobile